Ashland, Oregon
Current Conditions -  °F | °C
As of 11:53 AM on Wednesday 17 Dec 2014 (Local Time) from KMFR Reporting Station
Overcast Overcast  
Wind Chill: 45°   Ceiling: 6000
Heat Index: 48°   Visibility: 10mi
Dew Point: 41°   Wind: 7mph
Humidity: 77%   Direction: 60°ENE
Pressure: 29.9"   Gusts: NA
Location:  42.2°N, 122.71°W
Report Text: KMFR 171953Z 06006KT 10SM SCT047 OVC060 09/05 A2990 RMK AO2 SLP125 T00890050
Loading
Personal Weather Stations






























Interactive Weather Map New forecast layout! Learn more

10-Day Weather Forecast

Advertisements
Track Severe Weather on mobile